»·PEaware :: AAL115 KGEG-KSEA

AAL115 :: KGEG-KSEA

FLIGHT INFORMATION

Flight Status: Arrived
Operator:
American Airlines
More flights by this operator :: More flights under this callsign
Pilot: Sergei F. (8485)
Aircraft: BOEING 737-300
(B733)
More flights by this aircraft type
Origin: KGEG Spokane Intl
United States
Destination: KSEA Seattle-Tacoma Intl
United States
More flights between these airports :: More routes between these airports
Route: +TEMPL GLASR1
File this flight plan on PilotEdge
Remarks:
Altitude:
(Current/Filed)
16,000ft
Speed:
(Current/Filed)
300kts
Departed: 15-Dec-17 05:33 PM
Arrived: 15-Dec-17 06:21 PM
Distance/Time
Traveled:
194nm/0:48
Distance/Time
To Go:
Arrived

Flight Plot

Page will automatically refresh every two minutes.

Flight plan parsing failed; only flown route is shown


Map Options




Map Legend


Flown Route
Filed Route
Departure Airport
Arrival Airport
Navaid (VOR, NDB)
Fix

Horizontal Profiles

Position Reports

Time Latitude Longitude Heading Altitude Ground
Speed
15-Dec-17 17:08 47.624347 -117.535541 322 2361ft 0kts
15-Dec-17 17:09 47.624347 -117.535541 322 2361ft 0kts
15-Dec-17 17:10 47.624347 -117.535541 322 2361ft 0kts
15-Dec-17 17:11 47.624347 -117.535541 322 2361ft 0kts
15-Dec-17 17:12 47.624347 -117.535541 322 2361ft 0kts
15-Dec-17 17:13 47.624347 -117.535541 322 2361ft 0kts
15-Dec-17 17:14 47.624347 -117.535541 322 2361ft 0kts
15-Dec-17 17:15 47.624347 -117.535541 322 2361ft 0kts
15-Dec-17 17:16 47.624347 -117.535541 322 2361ft 0kts
15-Dec-17 17:17 47.624347 -117.535541 322 2361ft 0kts
15-Dec-17 17:18 47.624347 -117.535541 322 2361ft 0kts
15-Dec-17 17:19 47.624347 -117.535541 322 2361ft 0kts
15-Dec-17 17:20 47.624347 -117.535541 322 2361ft 0kts
15-Dec-17 17:21 47.624347 -117.535541 322 2361ft 0kts
15-Dec-17 17:22 47.624347 -117.535541 322 2361ft 0kts
15-Dec-17 17:23 47.624347 -117.535541 322 2361ft 0kts
15-Dec-17 17:24 47.624304 -117.535492 322 2360ft 0kts
15-Dec-17 17:25 47.623871 -117.535001 322 2359ft 0kts
15-Dec-17 17:26 47.623802 -117.534918 44 2359ft 0kts
15-Dec-17 17:27 47.623803 -117.534918 44 2359ft 0kts
15-Dec-17 17:28 47.623803 -117.534918 44 2359ft 0kts
15-Dec-17 17:29 47.623803 -117.534918 44 2359ft 0kts
15-Dec-17 17:30 47.623803 -117.534918 44 2359ft 0kts
15-Dec-17 17:31 47.623803 -117.534918 44 2359ft 0kts
15-Dec-17 17:32 47.623803 -117.534918 44 2359ft 0kts
15-Dec-17 17:33 47.623953 -117.534695 45 2359ft 4kts
15-Dec-17 17:34 47.625516 -117.530864 44 2355ft 14kts
15-Dec-17 17:35 47.629143 -117.525435 44 2347ft 18kts
15-Dec-17 17:36 47.632247 -117.520717 52 2330ft 0kts
15-Dec-17 17:37 47.631667 -117.519138 135 2327ft 14kts
15-Dec-17 17:38 47.630737 -117.518991 224 2330ft 8kts
15-Dec-17 17:39 47.608323 -117.550706 219 3925ft 143kts
15-Dec-17 17:40 47.575392 -117.588561 218 5966ft 167kts
15-Dec-17 17:41 47.563711 -117.651446 282 7915ft 204kts
15-Dec-17 17:42 47.575763 -117.741800 277 9943ft 258kts
15-Dec-17 17:43 47.586540 -117.859613 279 12143ft 308kts
15-Dec-17 17:44 47.598565 -117.985909 279 15425ft 316kts
15-Dec-17 17:45 47.610833 -118.115381 279 18684ft 325kts
15-Dec-17 17:46 47.623291 -118.248450 278 21906ft 334kts
15-Dec-17 17:47 47.636129 -118.387425 278 24050ft 344kts
15-Dec-17 17:48 47.648633 -118.524604 278 24175ft 333kts
15-Dec-17 17:49 47.660457 -118.657217 277 24187ft 334kts
15-Dec-17 17:50 47.672368 -118.793157 277 24195ft 334kts
15-Dec-17 17:51 47.684206 -118.929701 277 24193ft 338kts
15-Dec-17 17:52 47.696095 -119.068742 277 24196ft 342kts
15-Dec-17 17:53 47.707889 -119.208740 277 24182ft 342kts
15-Dec-17 17:54 47.719512 -119.348785 277 24175ft 342kts
15-Dec-17 17:55 47.730893 -119.488632 277 24176ft 342kts
15-Dec-17 17:56 47.741397 -119.627349 277 24173ft 338kts
15-Dec-17 17:57 47.752236 -119.764769 276 24177ft 339kts
15-Dec-17 17:58 47.763079 -119.903535 276 24171ft 339kts
15-Dec-17 17:59 47.773446 -120.041252 276 24166ft 338kts
15-Dec-17 18:00 47.783670 -120.179735 276 24174ft 338kts
15-Dec-17 18:01 47.793954 -120.319003 276 24177ft 338kts
15-Dec-17 18:02 47.804094 -120.457720 276 24176ft 338kts
15-Dec-17 18:03 47.814105 -120.596969 276 24175ft 338kts
15-Dec-17 18:04 47.823428 -120.729057 276 22835ft 339kts
15-Dec-17 18:05 47.832825 -120.869557 276 21199ft 345kts
15-Dec-17 18:06 47.842088 -121.007530 276 19583ft 318kts
15-Dec-17 18:07 47.850451 -121.132442 276 17984ft 294kts
15-Dec-17 18:08 47.858147 -121.251920 276 16410ft 287kts
15-Dec-17 18:09 47.865633 -121.368704 276 15019ft 282kts
15-Dec-17 18:10 47.873005 -121.484233 276 13617ft 276kts
15-Dec-17 18:11 47.880066 -121.596464 276 12429ft 271kts
15-Dec-17 18:12 47.879765 -121.704910 241 11967ft 274kts
15-Dec-17 18:13 47.823809 -121.784742 226 11520ft 283kts
15-Dec-17 18:14 47.770231 -121.861311 225 9939ft 261kts
15-Dec-17 18:15 47.721633 -121.932531 247 8499ft 234kts
15-Dec-17 18:16 47.716180 -122.022979 265 7322ft 214kts
15-Dec-17 18:17 47.713420 -122.108635 265 6307ft 208kts
15-Dec-17 18:18 47.710958 -122.190796 265 5154ft 195kts
15-Dec-17 18:19 47.708210 -122.268564 252 4009ft 184kts
15-Dec-17 18:20 47.670286 -122.302869 196 4012ft 155kts
15-Dec-17 18:21 47.629607 -122.308088 178 3795ft 141kts
15-Dec-17 18:22 47.592085 -122.306547 179 2981ft 128kts
15-Dec-17 18:23 47.557637 -122.306888 180 2289ft 126kts
15-Dec-17 18:24 47.522898 -122.307219 179 1614ft 125kts
15-Dec-17 18:25 47.488420 -122.307521 179 945ft 124kts
15-Dec-17 18:26 47.454826 -122.307860 179 428ft 107kts
15-Dec-17 18:27 47.445853 -122.306869 104 393ft 9kts
15-Dec-17 18:28 47.442939 -122.306352 180 384ft 9kts
15-Dec-17 18:29 47.439896 -122.305502 89 374ft 9kts
15-Dec-17 18:30 47.440485 -122.303773 9 379ft 1kts
15-Dec-17 18:31 47.440517 -122.303766 8 379ft 0kts

Navigation Log

Ident Type
Flight plan parsing failed, navigation log unavailable